Terminal Aerodrome Forecast
Issued by NWS

Home | Current Version | Previous Version | Text Only | Print | Product List | Glossary On
Versions: 1 2 3 4 5 6 7 8 9 10 11 12 13 14 15 16 17
000
FTUS43 KFGF 262300
TAFBJI
TAF
KBJI 262331Z 2700/2724 32011KT P6SM OVC015
     FM271200 VRB03KT P6SM BKN050
     FM271600 16007KT P6SM BKN250=

USA.gov is the U.S. government's official web portal to all federal, state and local government web resources and services.